createdAt,value
2018-10-21T00:00:21.503Z,20.70
2018-10-21T00:01:21.491Z,20.60
2018-10-21T00:02:21.495Z,19.79
2018-10-21T00:03:21.469Z,21.89
2018-10-21T00:04:21.460Z,21.50
2018-10-21T00:05:21.447Z,25.50
2018-10-21T00:06:21.440Z,20.89
2018-10-21T00:07:21.427Z,20.60
2018-10-21T00:08:21.414Z,19.79
2018-10-21T00:09:21.404Z,19.89
2018-10-21T00:10:21.394Z,21.89
2018-10-21T00:11:21.383Z,20.10
2018-10-21T00:12:21.372Z,19.60
2018-10-21T00:13:21.360Z,18.50
2018-10-21T00:14:21.351Z,25.70
2018-10-21T00:15:21.404Z,23.10
2018-10-21T00:16:21.331Z,23.20
2018-10-21T00:17:21.319Z,18.00
2018-10-21T00:18:21.308Z,20.20
2018-10-21T00:19:21.296Z,20.00
2018-10-21T00:20:21.286Z,18.79
2018-10-21T00:21:21.274Z,20.50
2018-10-21T00:22:21.263Z,20.60
2018-10-21T00:23:21.252Z,31.20
2018-10-21T00:24:21.242Z,19.00
2018-10-21T00:25:21.230Z,19.39
2018-10-21T00:26:21.219Z,22.50
2018-10-21T00:27:21.208Z,19.60
2018-10-21T00:28:21.199Z,22.89
2018-10-21T00:29:21.187Z,23.10
2018-10-21T00:30:21.176Z,20.79
2018-10-21T00:31:21.166Z,21.60
2018-10-21T00:32:21.155Z,19.00
2018-10-21T00:33:21.144Z,20.29
2018-10-21T00:34:21.134Z,22.50
2018-10-21T00:35:21.124Z,21.29
2018-10-21T00:36:21.111Z,20.00
2018-10-21T00:37:21.103Z,22.79
2018-10-21T00:38:21.091Z,22.00
2018-10-21T00:39:21.078Z,22.79
2018-10-21T00:40:21.070Z,18.79
2018-10-21T00:41:21.056Z,20.10
2018-10-21T00:42:21.046Z,25.50
2018-10-21T00:43:21.037Z,21.70
2018-10-21T00:44:21.030Z,23.29
2018-10-21T00:45:21.013Z,25.79
2018-10-21T00:46:21.003Z,22.39
2018-10-21T00:47:20.994Z,25.60
2018-10-21T00:48:20.982Z,23.50
2018-10-21T00:49:20.971Z,26.39
2018-10-21T00:50:20.960Z,24.50
2018-10-21T00:51:20.949Z,22.00
2018-10-21T00:52:20.941Z,22.20
2018-10-21T00:53:20.929Z,21.60
2018-10-21T00:54:20.916Z,25.20
2018-10-21T00:55:20.907Z,23.29
2018-10-21T00:56:20.896Z,25.20
2018-10-21T00:57:20.884Z,22.50
2018-10-21T00:58:20.875Z,23.10
2018-10-21T00:59:20.864Z,21.60
2018-10-21T01:00:20.850Z,22.00
2018-10-21T01:01:20.841Z,23.20
2018-10-21T01:02:20.829Z,23.00
2018-10-21T01:03:20.820Z,25.60
2018-10-21T01:04:20.808Z,23.50
2018-10-21T01:05:20.797Z,22.00
2018-10-21T01:06:20.787Z,22.10
2018-10-21T01:07:20.779Z,23.10
2018-10-21T01:08:20.765Z,20.50
2018-10-21T01:09:20.755Z,21.00
2018-10-21T01:10:20.749Z,21.89
2018-10-21T01:11:20.737Z,25.89
2018-10-21T01:12:20.720Z,26.29
2018-10-21T01:13:20.712Z,27.60
2018-10-21T01:14:20.701Z,25.50
2018-10-21T01:15:20.691Z,24.89
2018-10-21T01:16:20.680Z,26.10
2018-10-21T01:17:20.669Z,23.89
2018-10-21T01:18:20.658Z,22.00
2018-10-21T01:19:20.648Z,24.60
2018-10-21T01:20:20.635Z,20.20
2018-10-21T01:21:20.624Z,20.39
2018-10-21T01:22:20.615Z,21.79
2018-10-21T01:23:20.602Z,20.70
2018-10-21T01:24:20.594Z,20.10
2018-10-21T01:25:20.582Z,25.00
2018-10-21T01:26:20.570Z,19.79
2018-10-21T01:27:20.563Z,23.50
2018-10-21T01:28:20.548Z,21.50
2018-10-21T01:29:20.538Z,22.29
2018-10-21T01:30:20.528Z,25.60
2018-10-21T01:31:20.515Z,22.29
2018-10-21T01:32:20.505Z,22.20
2018-10-21T01:33:20.495Z,22.20
2018-10-21T01:34:20.486Z,23.20
2018-10-21T01:35:20.473Z,20.79
2018-10-21T01:36:20.704Z,26.60
2018-10-21T01:37:20.467Z,24.89
2018-10-21T01:38:20.489Z,20.70
2018-10-21T01:39:20.432Z,20.20
2018-10-21T01:40:20.419Z,24.00
2018-10-21T01:41:20.407Z,23.00
2018-10-21T01:42:20.400Z,23.20
2018-10-21T01:43:20.488Z,22.00
2018-10-21T01:44:20.377Z,23.39
2018-10-21T01:45:20.370Z,23.70
2018-10-21T01:46:20.358Z,24.00
2018-10-21T01:47:20.344Z,24.10
2018-10-21T01:48:20.337Z,27.50
2018-10-21T01:49:20.322Z,26.20
2018-10-21T01:50:20.315Z,24.10
2018-10-21T01:51:20.305Z,24.00
2018-10-21T01:52:20.325Z,24.10
2018-10-21T01:53:20.283Z,23.60
2018-10-21T01:54:20.266Z,26.20
2018-10-21T01:55:20.258Z,24.00
2018-10-21T01:56:20.245Z,26.89
2018-10-21T01:57:20.243Z,25.70
2018-10-21T01:58:20.226Z,26.20
2018-10-21T01:59:20.216Z,25.60
2018-10-21T02:00:20.204Z,24.00
2018-10-21T02:01:20.194Z,26.29
2018-10-21T02:02:20.181Z,27.50
2018-10-21T02:03:20.172Z,26.89
2018-10-21T02:04:20.159Z,23.50
2018-10-21T02:05:20.148Z,22.20
2018-10-21T02:06:20.139Z,20.60
2018-10-21T02:07:20.127Z,23.50
2018-10-21T02:08:20.119Z,23.00
2018-10-21T02:09:20.107Z,24.79
2018-10-21T02:10:20.096Z,25.39
2018-10-21T02:11:20.082Z,25.00
2018-10-21T02:12:20.074Z,23.60
2018-10-21T02:13:20.062Z,26.79
2018-10-21T02:14:20.055Z,24.50
2018-10-21T02:15:20.041Z,24.29
2018-10-21T02:16:20.029Z,21.50
2018-10-21T02:17:20.021Z,26.89
2018-10-21T02:18:20.015Z,22.20
2018-10-21T02:19:19.998Z,21.70
2018-10-21T02:20:19.986Z,21.20
2018-10-21T02:21:19.977Z,29.39
2018-10-21T02:22:19.968Z,22.60
2018-10-21T02:23:19.956Z,27.70
2018-10-21T02:24:19.945Z,22.20
2018-10-21T02:25:19.935Z,24.70
2018-10-21T02:26:19.992Z,20.00
2018-10-21T02:27:19.943Z,24.79
2018-10-21T02:28:19.923Z,24.10
2018-10-21T02:29:19.891Z,24.70
2018-10-21T02:30:19.880Z,26.00
2018-10-21T02:31:19.867Z,25.10
2018-10-21T02:32:19.856Z,22.89
2018-10-21T02:33:19.919Z,23.89
2018-10-21T02:34:19.836Z,22.10
2018-10-21T02:35:19.827Z,26.50
2018-10-21T02:36:19.819Z,23.20
2018-10-21T02:37:19.807Z,22.39
2018-10-21T02:38:19.794Z,22.10
2018-10-21T02:39:19.796Z,24.29
2018-10-21T02:40:19.774Z,25.50
2018-10-21T02:41:19.762Z,21.00
2018-10-21T02:42:19.749Z,22.70
2018-10-21T02:43:19.740Z,20.60
2018-10-21T02:44:19.737Z,21.50
2018-10-21T02:45:19.811Z,20.10
2018-10-21T02:46:19.706Z,21.39
2018-10-21T02:47:19.696Z,20.60
2018-10-21T02:48:19.683Z,21.39
2018-10-21T02:49:19.675Z,21.29
2018-10-21T02:50:19.662Z,23.00
2018-10-21T02:51:19.713Z,22.89
2018-10-21T02:52:19.642Z,21.79
2018-10-21T02:53:19.635Z,22.10
2018-10-21T02:54:19.620Z,21.39
2018-10-21T02:55:19.609Z,22.20
2018-10-21T02:56:19.598Z,22.39
2018-10-21T02:57:19.630Z,22.39
2018-10-21T02:58:19.581Z,21.70
2018-10-21T02:59:19.565Z,21.79
2018-10-21T03:00:19.557Z,21.20
2018-10-21T03:01:19.549Z,21.79
2018-10-21T03:02:19.535Z,23.29
2018-10-21T03:03:19.524Z,22.60
2018-10-21T03:04:19.511Z,23.00
2018-10-21T03:05:19.501Z,19.39
2018-10-21T03:06:19.489Z,22.60
2018-10-21T03:07:19.479Z,21.89
2018-10-21T03:08:19.468Z,22.00
2018-10-21T03:09:19.523Z,25.10
2018-10-21T03:10:19.446Z,20.29
2018-10-21T03:11:19.434Z,22.89
2018-10-21T03:12:19.426Z,20.79
2018-10-21T03:13:19.417Z,23.10
2018-10-21T03:14:19.404Z,21.50
2018-10-21T03:15:19.394Z,20.60
2018-10-21T03:16:19.381Z,21.89
2018-10-21T03:17:19.371Z,21.20
2018-10-21T03:18:19.526Z,19.70
2018-10-21T03:19:19.351Z,24.10
2018-10-21T03:20:19.392Z,24.20
2018-10-21T03:21:19.433Z,23.50
2018-10-21T03:22:19.319Z,21.70
2018-10-21T03:23:19.307Z,21.89
2018-10-21T03:24:19.297Z,20.60
2018-10-21T03:25:19.287Z,23.70
2018-10-21T03:26:19.278Z,23.20
2018-10-21T03:27:19.377Z,20.20
2018-10-21T03:28:19.254Z,22.89
2018-10-21T03:29:19.242Z,24.79
2018-10-21T03:30:19.231Z,22.39
2018-10-21T03:31:19.224Z,20.39
2018-10-21T03:32:19.228Z,22.60
2018-10-21T03:33:19.579Z,22.70
2018-10-21T03:34:19.190Z,22.20
2018-10-21T03:35:19.177Z,22.00
2018-10-21T03:36:19.166Z,22.29
2018-10-21T03:37:19.157Z,20.89
2018-10-21T03:38:19.147Z,19.60
2018-10-21T03:39:19.137Z,20.50
2018-10-21T03:40:19.252Z,18.89
2018-10-21T03:41:19.114Z,19.79
2018-10-21T03:42:19.105Z,20.70
2018-10-21T03:43:19.097Z,25.70
2018-10-21T03:44:19.084Z,22.79
2018-10-21T03:45:19.075Z,25.20
2018-10-21T03:46:19.095Z,23.50
2018-10-21T03:47:19.048Z,22.79
2018-10-21T03:48:19.047Z,22.70
2018-10-21T03:49:19.027Z,21.00
2018-10-21T03:50:19.016Z,22.79
2018-10-21T03:51:19.008Z,23.89
2018-10-21T03:52:19.102Z,20.50
2018-10-21T03:53:18.983Z,22.79
2018-10-21T03:54:18.978Z,21.29
2018-10-21T03:55:18.960Z,23.60
2018-10-21T03:56:18.953Z,21.79
2018-10-21T03:57:18.944Z,21.50
2018-10-21T03:58:18.929Z,22.29
2018-10-21T03:59:18.917Z,22.89
2018-10-21T04:00:18.909Z,22.20
2018-10-21T04:01:18.898Z,21.00
2018-10-21T04:02:18.891Z,22.50
2018-10-21T04:03:18.873Z,20.50
2018-10-21T04:04:18.949Z,19.79
2018-10-21T04:05:18.859Z,21.79
2018-10-21T04:06:18.843Z,19.29
2018-10-21T04:07:18.835Z,20.60
2018-10-21T04:08:18.822Z,21.70
2018-10-21T04:09:18.809Z,20.60
2018-10-21T04:10:18.800Z,20.20
2018-10-21T04:11:18.790Z,20.50
2018-10-21T04:12:18.780Z,22.39
2018-10-21T04:13:18.769Z,23.10
2018-10-21T04:14:18.756Z,20.89
2018-10-21T04:15:18.750Z,21.50
2018-10-21T04:16:18.850Z,22.89
2018-10-21T04:17:18.726Z,19.60
2018-10-21T04:18:18.712Z,19.29
2018-10-21T04:19:18.703Z,19.79
2018-10-21T04:20:18.692Z,19.79
2018-10-21T04:21:18.683Z,20.00
2018-10-21T04:22:18.673Z,20.29
2018-10-21T04:23:18.707Z,19.79
2018-10-21T04:24:18.649Z,21.89
2018-10-21T04:25:18.638Z,21.89
2018-10-21T04:26:18.635Z,19.29
2018-10-21T04:27:18.617Z,21.20
2018-10-21T04:28:18.722Z,24.50
2018-10-21T04:29:18.594Z,19.20
2018-10-21T04:30:18.584Z,20.79
2018-10-21T04:31:18.575Z,19.50
2018-10-21T04:32:18.562Z,21.10
2018-10-21T04:33:18.554Z,23.00
2018-10-21T04:34:18.541Z,21.20
2018-10-21T04:35:18.556Z,21.20
2018-10-21T04:36:18.521Z,23.29
2018-10-21T04:37:18.509Z,23.50
2018-10-21T04:38:18.498Z,23.20
2018-10-21T04:39:18.487Z,20.89
2018-10-21T04:40:18.510Z,21.60
2018-10-21T04:41:18.468Z,21.20
2018-10-21T04:42:18.457Z,21.00
2018-10-21T04:43:18.446Z,19.89
2018-10-21T04:44:18.437Z,20.10
2018-10-21T04:45:18.425Z,21.60
2018-10-21T04:46:18.414Z,20.70
2018-10-21T04:47:18.403Z,20.00
2018-10-21T04:48:18.390Z,22.10
2018-10-21T04:49:18.381Z,24.79
2018-10-21T04:50:18.369Z,20.79
2018-10-21T04:51:18.359Z,22.39
2018-10-21T04:52:18.375Z,20.50
2018-10-21T04:53:18.338Z,21.79
2018-10-21T04:54:18.326Z,19.79
2018-10-21T04:55:18.316Z,20.89
2018-10-21T04:56:18.304Z,20.29
2018-10-21T04:57:18.294Z,21.60
2018-10-21T04:58:18.284Z,22.50
2018-10-21T04:59:18.273Z,20.00
2018-10-21T05:00:18.260Z,19.60
2018-10-21T05:01:18.252Z,19.70
2018-10-21T05:02:18.240Z,21.00
2018-10-21T05:03:18.227Z,25.70
2018-10-21T05:04:18.220Z,21.79
2018-10-21T05:05:18.208Z,20.50
2018-10-21T05:06:18.196Z,20.60
2018-10-21T05:07:18.198Z,19.10
2018-10-21T05:08:18.177Z,19.89
2018-10-21T05:09:18.164Z,24.00
2018-10-21T05:10:18.256Z,21.60
2018-10-21T05:11:18.145Z,20.10
2018-10-21T05:12:18.132Z,21.70
2018-10-21T05:13:18.125Z,20.00
2018-10-21T05:14:18.109Z,21.20
2018-10-21T05:15:18.284Z,20.29
2018-10-21T05:16:18.123Z,20.00
2018-10-21T05:17:18.080Z,20.60
2018-10-21T05:18:18.068Z,20.10
2018-10-21T05:19:18.058Z,20.70
2018-10-21T05:20:18.048Z,18.70
2018-10-21T05:21:18.035Z,20.39
2018-10-21T05:22:18.130Z,21.60
2018-10-21T05:23:18.014Z,19.60
2018-10-21T05:24:18.006Z,20.20
2018-10-21T05:25:17.994Z,20.10
2018-10-21T05:26:17.980Z,18.29
2018-10-21T05:27:17.970Z,18.70
2018-10-21T05:28:17.979Z,19.79
2018-10-21T05:29:17.951Z,18.79
2018-10-21T05:30:17.939Z,19.39
2018-10-21T05:31:17.926Z,21.00
2018-10-21T05:32:17.917Z,19.89
2018-10-21T05:33:17.909Z,20.50
2018-10-21T05:34:17.902Z,20.50
2018-10-21T05:35:17.886Z,21.20
2018-10-21T05:36:17.873Z,22.79
2018-10-21T05:37:17.863Z,21.39
2018-10-21T05:38:17.854Z,21.89
2018-10-21T05:39:17.844Z,21.89
2018-10-21T05:40:17.905Z,24.60
2018-10-21T05:41:17.823Z,20.00
2018-10-21T05:42:17.810Z,30.50
2018-10-21T05:43:17.801Z,18.60
2018-10-21T05:44:17.788Z,20.79
2018-10-21T05:45:17.779Z,21.39
2018-10-21T05:46:17.772Z,21.50
2018-10-21T05:47:17.794Z,22.10
2018-10-21T05:48:17.745Z,23.10
2018-10-21T05:49:17.735Z,23.70
2018-10-21T05:50:17.728Z,24.39
2018-10-21T05:51:17.715Z,20.50
2018-10-21T05:52:17.704Z,20.89
2018-10-21T05:53:17.691Z,21.00
2018-10-21T05:54:17.680Z,23.70
2018-10-21T05:55:17.669Z,22.60
2018-10-21T05:56:17.662Z,21.10
2018-10-21T05:57:17.647Z,20.39
2018-10-21T05:58:17.692Z,18.89
2018-10-21T05:59:17.631Z,18.89
2018-10-21T06:00:17.617Z,32.70
2018-10-21T06:01:17.606Z,19.60
2018-10-21T06:02:17.593Z,25.50
2018-10-21T06:03:17.584Z,20.50
2018-10-21T06:04:17.676Z,18.50
2018-10-21T06:05:17.561Z,18.89
2018-10-21T06:06:17.551Z,18.60
2018-10-21T06:07:17.541Z,18.60
2018-10-21T06:08:17.531Z,17.60
2018-10-21T06:09:17.527Z,18.70
2018-10-21T06:10:17.605Z,21.29
2018-10-21T06:11:17.498Z,18.70
2018-10-21T06:12:17.487Z,20.39
2018-10-21T06:13:17.477Z,24.50
2018-10-21T06:14:17.466Z,19.10
2018-10-21T06:15:17.455Z,20.20
2018-10-21T06:16:17.548Z,19.50
2018-10-21T06:17:17.435Z,20.70
2018-10-21T06:18:17.425Z,20.70
2018-10-21T06:19:17.412Z,48.50
2018-10-21T06:20:17.399Z,21.00
2018-10-21T06:21:17.389Z,26.20
2018-10-21T06:22:17.430Z,19.70
2018-10-21T06:23:17.369Z,20.89
2018-10-21T06:24:17.360Z,19.79
2018-10-21T06:25:17.346Z,21.39
2018-10-21T06:26:17.336Z,20.10
2018-10-21T06:27:17.325Z,22.79
2018-10-21T06:28:17.314Z,21.39
2018-10-21T06:29:17.306Z,20.89
2018-10-21T06:30:17.293Z,21.20
2018-10-21T06:31:17.282Z,20.20
2018-10-21T06:32:17.276Z,21.70
2018-10-21T06:33:17.348Z,20.00
2018-10-21T06:34:17.250Z,20.79
2018-10-21T06:35:17.240Z,19.89
2018-10-21T06:36:17.232Z,20.89
2018-10-21T06:37:17.217Z,19.89
2018-10-21T06:38:17.207Z,18.79
2018-10-21T06:39:17.355Z,18.79
2018-10-21T06:40:17.186Z,18.10
2018-10-21T06:41:17.174Z,18.10
2018-10-21T06:42:17.167Z,16.50
2018-10-21T06:43:17.154Z,22.20
2018-10-21T06:44:17.143Z,18.00
2018-10-21T06:45:17.263Z,34.20
2018-10-21T06:46:17.122Z,19.39
2018-10-21T06:47:17.111Z,18.39
2018-10-21T06:48:17.119Z,18.20
2018-10-21T06:49:17.088Z,17.39
2018-10-21T06:50:17.125Z,18.60
2018-10-21T06:51:17.187Z,20.20
2018-10-21T06:52:17.057Z,18.39
2018-10-21T06:53:17.044Z,18.00
2018-10-21T06:54:17.033Z,18.10
2018-10-21T06:55:17.023Z,18.00
2018-10-21T06:56:17.086Z,19.20
2018-10-21T06:57:17.144Z,19.70
2018-10-21T06:58:16.991Z,19.10
2018-10-21T06:59:16.980Z,20.79
2018-10-21T07:00:16.969Z,22.10
2018-10-21T07:01:16.956Z,18.89
2018-10-21T07:02:16.946Z,18.39
2018-10-21T07:03:16.937Z,21.89
2018-10-21T07:04:16.954Z,18.00
2018-10-21T07:05:16.917Z,18.00
2018-10-21T07:06:16.914Z,16.89
2018-10-21T07:07:16.890Z,18.89
2018-10-21T07:08:16.886Z,20.29
2018-10-21T07:09:16.871Z,24.10
2018-10-21T07:10:16.935Z,23.20
2018-10-21T07:11:16.851Z,26.00
2018-10-21T07:12:16.837Z,17.20
2018-10-21T07:13:16.830Z,17.50
2018-10-21T07:14:16.816Z,23.10
2018-10-21T07:15:16.873Z,17.60
2018-10-21T07:16:16.978Z,17.79
2018-10-21T07:17:16.784Z,17.89
2018-10-21T07:18:16.777Z,17.00
2018-10-21T07:19:16.763Z,17.89
2018-10-21T07:20:16.755Z,17.39
2018-10-21T07:21:16.751Z,17.10
2018-10-21T07:22:16.789Z,17.60
2018-10-21T07:23:16.719Z,17.79
2018-10-21T07:24:16.710Z,17.29
2018-10-21T07:25:16.700Z,17.89
2018-10-21T07:26:16.688Z,17.00
2018-10-21T07:27:16.676Z,16.39
2018-10-21T07:28:16.823Z,17.00
2018-10-21T07:29:16.656Z,15.89
2018-10-21T07:30:16.645Z,16.29
2018-10-21T07:31:16.631Z,17.70
2018-10-21T07:32:16.624Z,16.70
2018-10-21T07:33:16.611Z,15.80
2018-10-21T07:34:16.668Z,17.79
2018-10-21T07:35:16.642Z,16.60
2018-10-21T07:36:16.611Z,18.00
2018-10-21T07:37:16.567Z,16.60
2018-10-21T07:38:16.557Z,18.00
2018-10-21T07:39:16.551Z,17.20
2018-10-21T07:40:16.632Z,16.20
2018-10-21T07:41:16.528Z,16.10
2018-10-21T07:42:16.514Z,16.70
2018-10-21T07:43:16.505Z,16.89
2018-10-21T07:44:16.501Z,16.70
2018-10-21T07:45:16.483Z,15.80
2018-10-21T07:46:16.551Z,16.79
2018-10-21T07:47:16.470Z,15.60
2018-10-21T07:48:16.461Z,17.60
2018-10-21T07:49:16.513Z,17.60
2018-10-21T07:50:16.428Z,16.60
2018-10-21T07:51:16.416Z,16.10
2018-10-21T07:52:16.471Z,16.29
2018-10-21T07:53:16.399Z,15.80
2018-10-21T07:54:16.392Z,16.10
2018-10-21T07:55:16.491Z,15.89
2018-10-21T07:56:16.365Z,15.30
2018-10-21T07:57:16.354Z,16.10
2018-10-21T07:58:16.469Z,17.00
2018-10-21T07:59:16.329Z,16.29
2018-10-21T08:00:16.321Z,15.10
2018-10-21T08:01:16.337Z,16.00
2018-10-21T08:02:16.301Z,15.60
2018-10-21T08:03:16.287Z,16.20
2018-10-21T08:04:16.335Z,15.30
2018-10-21T08:05:16.272Z,16.20
2018-10-21T08:06:16.254Z,14.80
2018-10-21T08:07:16.244Z,15.30
2018-10-21T08:08:16.234Z,14.69
2018-10-21T08:09:16.224Z,14.89
2018-10-21T08:10:16.338Z,15.60
2018-10-21T08:11:16.202Z,16.20
2018-10-21T08:12:16.190Z,16.20
2018-10-21T08:13:16.180Z,17.79
2018-10-21T08:14:16.172Z,15.89
2018-10-21T08:15:16.271Z,14.69
2018-10-21T08:16:16.319Z,15.19
2018-10-21T08:17:16.138Z,14.80
2018-10-21T08:18:16.126Z,14.89
2018-10-21T08:19:16.114Z,16.20
2018-10-21T08:20:16.103Z,15.19
2018-10-21T08:21:16.110Z,16.29
2018-10-21T08:22:16.192Z,15.00
2018-10-21T08:23:16.069Z,15.19
2018-10-21T08:24:16.065Z,14.89
2018-10-21T08:25:16.051Z,14.89
2018-10-21T08:26:16.040Z,14.80
2018-10-21T08:27:16.087Z,14.19
2018-10-21T08:28:16.087Z,15.19
2018-10-21T08:29:16.006Z,15.00
2018-10-21T08:30:15.994Z,15.19
2018-10-21T08:31:15.986Z,14.60
2018-10-21T08:32:15.974Z,15.00
2018-10-21T08:33:15.965Z,14.60
2018-10-21T08:34:15.986Z,15.50
2018-10-21T08:35:15.953Z,14.30
2018-10-21T08:36:15.931Z,14.80
2018-10-21T08:37:15.919Z,15.19
2018-10-21T08:38:15.909Z,14.39
2018-10-21T08:39:15.898Z,14.50
2018-10-21T08:40:15.986Z,15.10
2018-10-21T08:41:15.877Z,14.89
2018-10-21T08:42:15.864Z,14.60
2018-10-21T08:43:15.856Z,14.39
2018-10-21T08:44:15.843Z,15.10
2018-10-21T08:45:15.832Z,15.60
2018-10-21T08:46:15.988Z,15.19
2018-10-21T08:47:15.812Z,15.10
2018-10-21T08:48:15.799Z,14.19
2018-10-21T08:49:15.879Z,14.50
2018-10-21T08:50:15.780Z,14.89
2018-10-21T08:51:15.766Z,14.89
2018-10-21T08:52:15.801Z,15.69
2018-10-21T08:53:15.747Z,15.19
2018-10-21T08:54:15.732Z,16.00
2018-10-21T08:55:15.871Z,14.89
2018-10-21T08:56:15.717Z,14.80
2018-10-21T08:57:15.705Z,14.80
2018-10-21T08:58:15.800Z,15.30
2018-10-21T08:59:15.681Z,15.00
2018-10-21T09:00:15.670Z,15.30
2018-10-21T09:01:15.798Z,15.50
2018-10-21T09:02:15.648Z,14.39
2018-10-21T09:03:15.636Z,14.80
2018-10-21T09:04:15.799Z,14.39
2018-10-21T09:05:15.623Z,14.39
2018-10-21T09:06:15.605Z,14.60
2018-10-21T09:07:15.739Z,14.60
2018-10-21T09:08:15.584Z,14.50
2018-10-21T09:09:15.572Z,14.60
2018-10-21T09:10:15.742Z,14.60
2018-10-21T09:11:15.552Z,13.80
2018-10-21T09:12:15.540Z,13.69
2018-10-21T09:13:15.603Z,14.00
2018-10-21T09:14:15.519Z,14.00
2018-10-21T09:15:15.576Z,13.69
2018-10-21T09:16:15.675Z,13.80
2018-10-21T09:17:15.485Z,14.60
2018-10-21T09:18:15.473Z,13.89
2018-10-21T09:19:15.553Z,13.60
2018-10-21T09:20:15.451Z,13.30
2018-10-21T09:21:15.439Z,13.69
2018-10-21T09:22:15.480Z,13.19
2018-10-21T09:23:15.422Z,12.69
2018-10-21T09:24:15.413Z,12.80
2018-10-21T09:25:15.446Z,13.39
2018-10-21T09:26:15.388Z,13.30
2018-10-21T09:27:15.374Z,12.30
2018-10-21T09:28:15.539Z,13.19
2018-10-21T09:29:15.353Z,12.39
2018-10-21T09:30:15.344Z,13.10
2018-10-21T09:31:15.387Z,12.30
2018-10-21T09:32:15.323Z,12.30
2018-10-21T09:33:15.355Z,12.30
2018-10-21T09:34:15.395Z,12.50
2018-10-21T09:35:15.289Z,11.89
2018-10-21T09:36:15.283Z,12.00
2018-10-21T09:37:15.369Z,12.50
2018-10-21T09:38:15.258Z,11.80
2018-10-21T09:39:15.249Z,12.39
2018-10-21T09:40:15.279Z,12.50
2018-10-21T09:41:15.224Z,12.10
2018-10-21T09:42:15.313Z,11.69
2018-10-21T09:43:15.374Z,12.19
2018-10-21T09:44:15.193Z,11.19
2018-10-21T09:45:15.179Z,11.89
2018-10-21T09:46:15.251Z,11.69
2018-10-21T09:47:15.158Z,11.80
2018-10-21T09:48:15.148Z,11.69
2018-10-21T09:49:15.219Z,11.69
2018-10-21T09:50:15.128Z,12.10
2018-10-21T09:51:15.114Z,11.10
2018-10-21T09:52:15.183Z,11.39
2018-10-21T09:53:15.095Z,11.60
2018-10-21T09:54:15.084Z,11.80
2018-10-21T09:55:15.158Z,11.10
2018-10-21T09:56:15.062Z,11.10
2018-10-21T09:57:15.051Z,11.19
2018-10-21T09:58:15.144Z,11.80
2018-10-21T09:59:15.073Z,11.50
2018-10-21T10:00:15.020Z,10.69
2018-10-21T10:01:15.100Z,10.69
2018-10-21T10:02:14.996Z,11.50
2018-10-21T10:03:14.985Z,10.60
2018-10-21T10:04:15.026Z,10.50
2018-10-21T10:05:15.013Z,10.80
2018-10-21T10:06:14.952Z,10.69
2018-10-21T10:07:15.181Z,10.80
2018-10-21T10:08:14.933Z,11.39
2018-10-21T10:09:14.919Z,10.69
2018-10-21T10:10:14.969Z,11.89
2018-10-21T10:11:14.898Z,11.19
2018-10-21T10:12:14.888Z,10.50
2018-10-21T10:13:14.996Z,10.30
2018-10-21T10:14:14.866Z,10.50
2018-10-21T10:15:14.854Z,10.60
2018-10-21T10:16:14.971Z,11.19
2018-10-21T10:17:14.837Z,10.50
2018-10-21T10:18:14.821Z,10.10
2018-10-21T10:19:14.885Z,10.19
2018-10-21T10:20:14.802Z,10.30
2018-10-21T10:21:14.789Z,10.39
2018-10-21T10:22:14.878Z,9.89
2018-10-21T10:23:14.831Z,10.19
2018-10-21T10:24:14.757Z,10.69
2018-10-21T10:25:14.841Z,9.60
2018-10-21T10:26:14.735Z,9.50
2018-10-21T10:27:14.724Z,9.69
2018-10-21T10:28:14.821Z,10.00
2018-10-21T10:29:14.701Z,10.89
2018-10-21T10:30:14.710Z,10.39
2018-10-21T10:31:14.762Z,11.30
2018-10-21T10:32:14.669Z,9.50
2018-10-21T10:33:14.658Z,9.80
2018-10-21T10:34:14.694Z,10.89
2018-10-21T10:35:14.637Z,8.60
2018-10-21T10:36:14.726Z,9.10
2018-10-21T10:37:14.692Z,9.50
2018-10-21T10:38:14.604Z,8.89
2018-10-21T10:39:14.592Z,10.19
2018-10-21T10:40:14.756Z,10.69
2018-10-21T10:41:14.573Z,9.60
2018-10-21T10:42:14.607Z,8.89
2018-10-21T10:43:14.587Z,10.69
2018-10-21T10:44:14.539Z,8.80
2018-10-21T10:45:14.528Z,8.89
2018-10-21T10:46:14.598Z,9.30
2018-10-21T10:47:14.506Z,8.89
2018-10-21T10:48:14.499Z,9.19
2018-10-21T10:49:14.667Z,9.80
2018-10-21T10:50:14.480Z,10.60
2018-10-21T10:51:14.469Z,10.89
2018-10-21T10:52:14.529Z,8.80
2018-10-21T10:53:14.445Z,8.00
2018-10-21T10:54:14.437Z,8.50
2018-10-21T10:55:14.537Z,7.69
2018-10-21T10:56:14.411Z,9.10
2018-10-21T10:57:14.401Z,8.19
2018-10-21T10:58:14.433Z,9.50
2018-10-21T10:59:14.378Z,7.90
2018-10-21T11:00:14.439Z,10.00
2018-10-21T11:01:14.432Z,8.69
2018-10-21T11:02:14.347Z,8.19
2018-10-21T11:03:14.334Z,7.40
2018-10-21T11:04:14.440Z,9.50
2018-10-21T11:05:14.324Z,7.19
2018-10-21T11:06:14.319Z,6.69
2018-10-21T11:07:14.357Z,7.80
2018-10-21T11:08:14.282Z,9.10
2018-10-21T11:09:14.270Z,6.90
2018-10-21T11:10:14.308Z,8.80
2018-10-21T11:11:14.250Z,7.80
2018-10-21T11:12:14.240Z,10.19
2018-10-21T11:13:14.288Z,8.69
2018-10-21T11:14:14.216Z,7.90
2018-10-21T11:15:14.208Z,6.90
2018-10-21T11:16:14.251Z,8.39
2018-10-21T11:17:14.185Z,8.10
2018-10-21T11:18:14.174Z,8.89
2018-10-21T11:19:14.241Z,7.80
2018-10-21T11:20:14.152Z,8.89
2018-10-21T11:21:14.143Z,6.50
2018-10-21T11:22:14.161Z,6.09
2018-10-21T11:23:14.121Z,7.50
2018-10-21T11:24:14.108Z,6.00
2018-10-21T11:25:14.166Z,6.19
2018-10-21T11:26:14.088Z,8.10
2018-10-21T11:27:14.084Z,6.90
2018-10-21T11:28:14.199Z,8.69
2018-10-21T11:29:14.059Z,5.09
2018-10-21T11:30:14.043Z,6.00
2018-10-21T11:31:14.119Z,7.00
2018-10-21T11:32:14.021Z,6.90
2018-10-21T11:33:14.013Z,4.80
2018-10-21T11:34:14.095Z,5.69
2018-10-21T11:35:13.992Z,7.69
2018-10-21T11:36:13.980Z,4.90
2018-10-21T11:37:14.107Z,4.90
2018-10-21T11:38:13.956Z,4.90
2018-10-21T11:39:13.946Z,5.40
2018-10-21T11:40:13.992Z,4.90
2018-10-21T11:41:13.927Z,5.59
2018-10-21T11:42:13.915Z,4.40
2018-10-21T11:43:13.991Z,5.50
2018-10-21T11:44:13.897Z,4.69
2018-10-21T11:45:13.885Z,7.30
2018-10-21T11:46:13.883Z,8.50
2018-10-21T11:47:13.862Z,5.90
2018-10-21T11:48:13.851Z,5.00
2018-10-21T11:49:14.016Z,6.50
2018-10-21T11:50:13.828Z,6.19
2018-10-21T11:51:13.816Z,5.40
2018-10-21T11:52:13.941Z,6.30
2018-10-21T11:53:13.797Z,5.09
2018-10-21T11:54:13.787Z,5.09
2018-10-21T11:55:13.848Z,4.90
2018-10-21T11:56:13.765Z,5.09
2018-10-21T11:57:13.755Z,6.19
2018-10-21T11:58:13.844Z,5.09
2018-10-21T11:59:13.731Z,5.30
2018-10-21T12:00:13.721Z,4.00
2018-10-21T12:01:13.839Z,4.59
2018-10-21T12:02:13.698Z,4.90
2018-10-21T12:03:13.690Z,5.90
2018-10-21T12:04:13.723Z,5.50
2018-10-21T12:05:13.670Z,5.69
2018-10-21T12:06:13.657Z,3.70
2018-10-21T12:07:13.686Z,5.30
2018-10-21T12:08:13.636Z,4.90
2018-10-21T12:09:13.627Z,5.30
2018-10-21T12:10:13.702Z,5.00
2018-10-21T12:11:13.603Z,4.40
2018-10-21T12:12:13.591Z,4.09
2018-10-21T12:13:13.752Z,6.09
2018-10-21T12:14:13.569Z,3.70
2018-10-21T12:15:13.559Z,5.19
2018-10-21T12:16:13.664Z,5.40
2018-10-21T12:17:13.539Z,4.90
2018-10-21T12:18:13.529Z,3.70
2018-10-21T12:19:13.650Z,4.40
2018-10-21T12:20:13.505Z,4.09
2018-10-21T12:21:13.494Z,4.30
2018-10-21T12:22:13.574Z,4.90
2018-10-21T12:23:13.620Z,4.50
2018-10-21T12:24:13.462Z,4.09
2018-10-21T12:25:13.608Z,3.70
2018-10-21T12:26:13.441Z,3.70
2018-10-21T12:27:13.432Z,4.80
2018-10-21T12:28:13.544Z,3.90
2018-10-21T12:29:13.539Z,4.30
2018-10-21T12:30:13.399Z,3.59
2018-10-21T12:31:13.454Z,3.20
2018-10-21T12:32:13.376Z,3.70
2018-10-21T12:33:13.367Z,2.90
2018-10-21T12:34:13.439Z,4.80
2018-10-21T12:35:13.373Z,3.79
2018-10-21T12:36:13.336Z,2.70
2018-10-21T12:37:13.403Z,3.50
2018-10-21T12:38:13.313Z,2.79
2018-10-21T12:39:13.301Z,3.59
2018-10-21T12:40:13.407Z,3.90
2018-10-21T12:41:13.347Z,3.50
2018-10-21T12:42:13.269Z,2.90
2018-10-21T12:43:13.341Z,2.50
2018-10-21T12:44:13.247Z,3.59
2018-10-21T12:45:13.285Z,3.09
2018-10-21T12:46:13.423Z,4.00
2018-10-21T12:47:13.296Z,3.29
2018-10-21T12:48:13.204Z,3.79
2018-10-21T12:49:13.253Z,2.90
2018-10-21T12:50:13.184Z,3.00
2018-10-21T12:51:13.172Z,3.00
2018-10-21T12:52:13.214Z,2.90
2018-10-21T12:53:13.197Z,3.20
2018-10-21T12:54:13.263Z,3.00
2018-10-21T12:55:13.172Z,4.40
2018-10-21T12:56:13.120Z,2.90
2018-10-21T12:57:13.110Z,3.29